Time,TemperatureF,DewpointF,PressureIn,WindDirection,WindDirectionDegrees,WindSpeedMPH,WindSpeedGustMPH,Humidity,HourlyPrecipIn,Conditions,Clouds,dailyrainin,SoftwareType,DateUTC
2013-03-17 00:00:00,40.9,33.1,29.88,SSW,203,0.4,1.8,74,0.00,,,0.03,WUHU216HW,2013-03-17 04:00:00,
2013-03-17 00:01:00,40.9,33.1,29.88,WSW,248,0.7,1.8,74,0.00,,,0.00,WUHU216HW,2013-03-17 04:01:00,
2013-03-17 00:06:00,40.7,33.0,29.89,SSW,203,0.2,2.2,74,0.00,,,0.00,WUHU216HW,2013-03-17 04:06:00,
2013-03-17 00:11:00,40.7,33.3,29.89,South,180,0.9,2.7,75,0.00,,,0.00,WUHU216HW,2013-03-17 04:11:00,
2013-03-17 00:17:00,40.5,33.1,29.89,SSE,158,0.2,2.7,75,0.00,,,0.00,WUHU216HW,2013-03-17 04:17:00,
2013-03-17 00:22:00,40.3,33.3,29.88,SE,135,0.0,0.7,76,0.00,,,0.00,WUHU216HW,2013-03-17 04:22:00,
2013-03-17 00:27:00,40.1,32.8,29.88,SSE,158,0.2,0.7,75,0.00,,,0.00,WUHU216HW,2013-03-17 04:27:00,
2013-03-17 00:32:00,40.0,32.7,29.88,WSW,248,0.2,0.7,75,0.00,,,0.00,WUHU216HW,2013-03-17 04:32:00,
2013-03-17 00:37:00,40.0,32.7,29.89,WSW,248,0.9,0.9,75,0.00,,,0.00,WUHU216HW,2013-03-17 04:37:00,
2013-03-17 00:42:00,40.0,32.7,29.89,SSE,158,0.9,1.1,75,0.00,,,0.00,WUHU216HW,2013-03-17 04:42:00,
2013-03-17 00:47:00,40.0,32.9,29.89,SE,135,0.2,1.3,76,0.00,,,0.00,WUHU216HW,2013-03-17 04:47:00,
2013-03-17 00:52:00,39.8,32.8,29.89,SSE,158,0.0,1.3,76,0.00,,,0.00,WUHU216HW,2013-03-17 04:52:00,
2013-03-17 00:57:00,39.6,32.9,29.89,SSW,203,0.7,1.1,77,0.00,,,0.00,WUHU216HW,2013-03-17 04:57:00,
2013-03-17 01:02:00,39.6,32.7,29.89,SW,225,1.8,1.8,76,0.00,,,0.00,WUHU216HW,2013-03-17 05:02:00,
2013-03-17 01:07:00,39.6,32.7,29.89,SW,225,1.1,2.5,76,0.00,,,0.00,WUHU216HW,2013-03-17 05:07:00,
2013-03-17 01:12:00,39.4,32.5,29.89,South,180,0.0,2.5,76,0.00,,,0.00,WUHU216HW,2013-03-17 05:12:00,
2013-03-17 01:18:00,39.2,32.7,29.90,WSW,248,0.4,1.1,77,0.00,,,0.00,WUHU216HW,2013-03-17 05:18:00,
2013-03-17 01:23:00,39.2,32.7,29.90,SW,225,1.1,1.1,77,0.00,,,0.00,WUHU216HW,2013-03-17 05:23:00,
2013-03-17 01:28:00,39.1,32.5,29.89,SW,225,0.7,1.1,77,0.00,,,0.00,WUHU216HW,2013-03-17 05:28:00,
2013-03-17 01:33:00,39.1,32.5,29.90,SW,225,0.0,1.1,77,0.00,,,0.00,WUHU216HW,2013-03-17 05:33:00,
2013-03-17 01:38:00,38.9,32.3,29.90,WSW,248,0.7,0.9,77,0.00,,,0.00,WUHU216HW,2013-03-17 05:38:00,
2013-03-17 01:43:00,38.9,32.3,29.90,South,180,0.4,1.1,77,0.00,,,0.00,WUHU216HW,2013-03-17 05:43:00,
2013-03-17 01:48:00,38.9,32.3,29.90,South,180,0.4,1.1,77,0.00,,,0.00,WUHU216HW,2013-03-17 05:48:00,
2013-03-17 01:53:00,38.5,32.0,29.90,SE,135,0.4,0.9,77,0.00,,,0.00,WUHU216HW,2013-03-17 05:53:00,
2013-03-17 01:58:00,38.5,32.3,29.91,East,90,1.1,1.8,78,0.00,,,0.00,WUHU216HW,2013-03-17 05:58:00,
2013-03-17 02:03:00,38.5,32.0,29.91,ENE,68,0.7,1.8,77,0.00,,,0.00,WUHU216HW,2013-03-17 06:03:00,
2013-03-17 02:08:00,38.5,32.3,29.91,WSW,248,0.7,1.8,78,0.00,,,0.00,WUHU216HW,2013-03-17 06:08:00,
2013-03-17 02:13:00,38.5,32.0,29.91,SW,225,0.7,2.7,77,0.00,,,0.00,WUHU216HW,2013-03-17 06:13:00,
2013-03-17 02:18:00,38.3,31.8,29.92,NNE,23,0.2,2.7,77,0.00,,,0.00,WUHU216HW,2013-03-17 06:18:00,
2013-03-17 02:23:00,38.5,32.3,29.92,WSW,248,0.4,1.8,78,0.00,,,0.00,WUHU216HW,2013-03-17 06:23:00,
2013-03-17 02:28:00,38.3,31.8,29.92,SW,225,0.7,1.6,77,0.00,,,0.00,WUHU216HW,2013-03-17 06:28:00,
2013-03-17 02:33:00,38.3,31.8,29.92,SSW,203,0.0,1.6,77,0.00,,,0.00,WUHU216HW,2013-03-17 06:33:00,
2013-03-17 02:38:00,38.2,31.6,29.92,ESE,113,1.1,1.3,77,0.00,,,0.00,WUHU216HW,2013-03-17 06:38:00,
2013-03-17 02:43:00,38.2,31.6,29.92,SW,225,0.4,1.6,77,0.00,,,0.00,WUHU216HW,2013-03-17 06:43:00,
2013-03-17 02:48:00,38.2,31.6,29.93,SW,225,0.9,1.6,77,0.00,,,0.00,WUHU216HW,2013-03-17 06:48:00,
2013-03-17 02:53:00,38.0,31.8,29.92,SE,135,1.3,2.9,78,0.00,,,0.00,WUHU216HW,2013-03-17 06:53:00,
2013-03-17 02:58:00,38.0,31.4,29.93,South,180,0.9,2.9,77,0.00,,,0.00,WUHU216HW,2013-03-17 06:58:00,
2013-03-17 03:03:00,37.8,31.6,29.93,WSW,248,0.4,1.6,78,0.00,,,0.00,WUHU216HW,2013-03-17 07:03:00,
2013-03-17 03:08:00,37.8,31.6,29.93,SSE,158,0.9,1.8,78,0.00,,,0.00,WUHU216HW,2013-03-17 07:08:00,
2013-03-17 03:14:00,37.8,31.6,29.94,WSW,248,0.0,1.8,78,0.00,,,0.00,WUHU216HW,2013-03-17 07:14:00,
2013-03-17 03:19:00,37.6,31.4,29.94,SE,135,0.4,1.1,78,0.00,,,0.00,WUHU216HW,2013-03-17 07:19:00,
2013-03-17 03:24:00,37.4,31.5,29.94,NNW,338,0.4,1.6,79,0.00,,,0.00,WUHU216HW,2013-03-17 07:24:00,
2013-03-17 03:29:00,37.4,31.5,29.94,WSW,248,0.4,1.6,79,0.00,,,0.00,WUHU216HW,2013-03-17 07:29:00,
2013-03-17 03:34:00,37.3,31.3,29.95,WSW,248,0.7,1.3,79,0.00,,,0.00,WUHU216HW,2013-03-17 07:34:00,
2013-03-17 03:39:00,37.1,31.1,29.95,SSW,203,1.1,1.3,79,0.00,,,0.00,WUHU216HW,2013-03-17 07:39:00,
2013-03-17 03:44:00,37.1,31.1,29.95,SW,225,0.7,1.1,79,0.00,,,0.00,WUHU216HW,2013-03-17 07:44:00,
2013-03-17 03:49:00,37.1,30.9,29.95,SSW,203,0.0,1.3,78,0.00,,,0.00,WUHU216HW,2013-03-17 07:49:00,
2013-03-17 03:54:00,36.9,30.7,29.95,South,180,0.0,1.3,78,0.00,,,0.00,WUHU216HW,2013-03-17 07:54:00,
2013-03-17 03:59:00,36.7,30.5,29.94,WSW,248,0.4,0.9,78,0.00,,,0.00,WUHU216HW,2013-03-17 07:59:00,
2013-03-17 04:04:00,36.5,30.3,29.95,NW,315,0.0,0.4,78,0.00,,,0.00,WUHU216HW,2013-03-17 08:04:00,
2013-03-17 04:09:00,36.5,30.3,29.95,SW,225,0.0,1.1,78,0.00,,,0.00,WUHU216HW,2013-03-17 08:09:00,
2013-03-17 04:14:00,36.5,30.3,29.95,South,180,0.0,1.1,78,0.00,,,0.00,WUHU216HW,2013-03-17 08:14:00,
2013-03-17 04:19:00,36.4,30.2,29.95,SW,225,0.0,0.4,78,0.00,,,0.00,WUHU216HW,2013-03-17 08:19:00,
2013-03-17 04:24:00,36.5,30.6,29.94,ESE,113,0.4,1.1,79,0.00,,,0.00,WUHU216HW,2013-03-17 08:24:00,
2013-03-17 04:30:00,36.4,30.4,29.95,West,270,0.0,1.1,79,0.00,,,0.00,WUHU216HW,2013-03-17 08:30:00,
2013-03-17 04:35:00,36.4,30.2,29.95,ENE,68,0.2,0.4,78,0.00,,,0.00,WUHU216HW,2013-03-17 08:35:00,
2013-03-17 04:40:00,36.0,29.8,29.96,ENE,68,0.0,0.2,78,0.00,,,0.00,WUHU216HW,2013-03-17 08:40:00,
2013-03-17 04:45:00,35.8,29.6,29.96,ENE,68,0.0,0.0,78,0.00,,,0.00,WUHU216HW,2013-03-17 08:45:00,
2013-03-17 04:50:00,35.5,29.3,29.97,East,90,0.0,0.0,78,0.00,,,0.00,WUHU216HW,2013-03-17 08:50:00,
2013-03-17 04:55:00,35.3,29.1,29.97,East,90,0.0,0.0,78,0.00,,,0.00,WUHU216HW,2013-03-17 08:55:00,
2013-03-17 05:00:00,35.1,28.9,29.97,East,90,0.0,0.0,78,0.00,,,0.00,WUHU216HW,2013-03-17 09:00:00,
2013-03-17 05:05:00,34.9,28.7,29.97,WSW,248,0.0,0.4,78,0.00,,,0.00,WUHU216HW,2013-03-17 09:05:00,
2013-03-17 05:10:00,34.9,29.0,29.97,WSW,248,0.0,0.4,79,0.00,,,0.00,WUHU216HW,2013-03-17 09:10:00,
2013-03-17 05:15:00,34.6,28.6,29.97,WSW,248,0.0,0.0,79,0.00,,,0.00,WUHU216HW,2013-03-17 09:15:00,
2013-03-17 05:20:00,34.6,28.6,29.98,WSW,248,0.0,0.0,79,0.00,,,0.00,WUHU216HW,2013-03-17 09:20:00,
2013-03-17 05:25:00,34.2,28.3,29.98,WSW,248,0.0,0.0,79,0.00,,,0.00,WUHU216HW,2013-03-17 09:25:00,
2013-03-17 05:30:00,34.2,28.3,29.98,WSW,248,0.0,0.0,79,0.00,,,0.00,WUHU216HW,2013-03-17 09:30:00,
2013-03-17 05:35:00,34.0,28.4,29.98,WSW,248,0.0,0.0,80,0.00,,,0.00,WUHU216HW,2013-03-17 09:35:00,
2013-03-17 05:40:00,33.8,28.3,29.99,West,270,0.0,0.0,80,0.00,,,0.00,WUHU216HW,2013-03-17 09:40:00,
2013-03-17 05:45:00,33.8,28.3,29.99,West,270,0.0,0.0,80,0.00,,,0.00,WUHU216HW,2013-03-17 09:45:00,
2013-03-17 05:50:00,33.7,28.1,29.99,West,270,0.0,0.0,80,0.00,,,0.00,WUHU216HW,2013-03-17 09:50:00,
2013-03-17 05:56:00,33.8,28.3,29.99,SW,225,0.4,0.4,80,0.00,,,0.00,WUHU216HW,2013-03-17 09:56:00,
2013-03-17 06:00:00,34.0,28.4,29.99,SW,225,0.0,0.4,80,0.00,,,0.00,WUHU216HW,2013-03-17 10:00:00,
2013-03-17 06:06:00,34.2,28.6,29.99,South,180,0.7,0.7,80,0.00,,,0.00,WUHU216HW,2013-03-17 10:06:00,
2013-03-17 06:11:00,34.4,28.8,30.00,SW,225,0.0,0.9,80,0.00,,,0.00,WUHU216HW,2013-03-17 10:11:00,
2013-03-17 06:16:00,34.9,29.3,29.99,WSW,248,1.1,1.1,80,0.00,,,0.00,WUHU216HW,2013-03-17 10:16:00,
2013-03-17 06:21:00,35.3,29.7,30.00,WSW,248,0.9,1.1,80,0.00,,,0.00,WUHU216HW,2013-03-17 10:21:00,
2013-03-17 06:26:00,35.6,30.1,30.00,SSE,158,1.1,1.6,80,0.00,,,0.00,WUHU216HW,2013-03-17 10:26:00,
2013-03-17 06:32:00,35.8,29.9,30.00,SW,225,0.4,1.6,79,0.00,,,0.00,WUHU216HW,2013-03-17 10:32:00,
2013-03-17 06:37:00,36.0,29.8,30.00,SW,225,0.4,0.9,78,0.00,,,0.00,WUHU216HW,2013-03-17 10:37:00,
2013-03-17 06:42:00,36.0,29.8,30.01,WSW,248,0.9,0.9,78,0.00,,,0.00,WUHU216HW,2013-03-17 10:42:00,
2013-03-17 06:47:00,36.0,29.8,30.02,SW,225,0.4,2.5,78,0.00,,,0.00,WUHU216HW,2013-03-17 10:47:00,
2013-03-17 06:52:00,36.2,29.6,30.02,SSE,158,0.4,2.5,77,0.00,,,0.00,WUHU216HW,2013-03-17 10:52:00,
2013-03-17 06:57:00,36.2,29.6,30.02,SW,225,1.1,1.1,77,0.00,,,0.00,WUHU216HW,2013-03-17 10:57:00,
2013-03-17 07:03:00,36.2,29.6,30.02,SW,225,0.2,1.1,77,0.00,,,0.00,WUHU216HW,2013-03-17 11:03:00,
2013-03-17 07:08:00,36.2,29.6,30.03,SSW,203,1.1,1.6,77,0.00,,,0.00,WUHU216HW,2013-03-17 11:08:00,
2013-03-17 07:13:00,36.2,29.6,30.03,SW,225,0.2,1.6,77,0.00,,,0.00,WUHU216HW,2013-03-17 11:13:00,
2013-03-17 07:18:00,36.4,29.5,30.04,WSW,248,0.0,0.4,76,0.00,,,0.00,WUHU216HW,2013-03-17 11:18:00,
2013-03-17 07:23:00,36.4,29.5,30.04,WSW,248,0.0,0.4,76,0.00,,,0.00,WUHU216HW,2013-03-17 11:23:00,
2013-03-17 07:28:00,36.4,29.5,30.04,WSW,248,0.0,0.2,76,0.00,,,0.00,WUHU216HW,2013-03-17 11:28:00,
2013-03-17 07:33:00,36.4,29.5,30.05,SW,225,0.2,0.2,76,0.00,,,0.00,WUHU216HW,2013-03-17 11:33:00,
2013-03-17 07:38:00,36.5,29.7,30.05,South,180,0.0,0.2,76,0.00,,,0.00,WUHU216HW,2013-03-17 11:38:00,
2013-03-17 07:43:00,36.5,29.7,30.05,ESE,113,0.0,0.0,76,0.00,,,0.00,WUHU216HW,2013-03-17 11:43:00,
2013-03-17 07:48:00,36.5,29.7,30.05,South,180,0.0,0.0,76,0.00,,,0.00,WUHU216HW,2013-03-17 11:48:00,
2013-03-17 07:53:00,36.7,29.9,30.06,South,180,0.0,0.0,76,0.00,,,0.00,WUHU216HW,2013-03-17 11:53:00,
2013-03-17 07:58:00,36.9,30.1,30.06,South,180,0.0,0.0,76,0.00,,,0.00,WUHU216HW,2013-03-17 11:58:00,
2013-03-17 08:03:00,37.1,30.3,30.06,SSE,158,0.0,0.0,76,0.00,,,0.00,WUHU216HW,2013-03-17 12:03:00,
2013-03-17 08:08:00,37.1,30.3,30.06,SE,135,0.0,0.0,76,0.00,,,0.00,WUHU216HW,2013-03-17 12:08:00,
2013-03-17 08:13:00,37.4,30.9,30.06,SE,135,0.0,0.0,77,0.00,,,0.00,WUHU216HW,2013-03-17 12:13:00,
2013-03-17 08:18:00,37.8,31.2,30.07,ESE,113,0.2,0.2,77,0.00,,,0.00,WUHU216HW,2013-03-17 12:18:00,
2013-03-17 08:23:00,38.0,31.1,30.08,SE,135,0.2,0.2,76,0.00,,,0.00,WUHU216HW,2013-03-17 12:23:00,
2013-03-17 08:28:00,38.2,31.2,30.08,SE,135,0.0,0.2,76,0.00,,,0.00,WUHU216HW,2013-03-17 12:28:00,
2013-03-17 08:34:00,38.3,31.4,30.08,SW,225,0.0,0.4,76,0.00,,,0.00,WUHU216HW,2013-03-17 12:34:00,
2013-03-17 08:39:00,38.5,31.2,30.08,WSW,248,0.0,0.4,75,0.00,,,0.00,WUHU216HW,2013-03-17 12:39:00,
2013-03-17 08:44:00,38.5,31.0,30.08,WSW,248,0.0,0.4,74,0.00,,,0.00,WUHU216HW,2013-03-17 12:44:00,
2013-03-17 08:49:00,38.7,31.2,30.09,SSE,158,0.0,0.0,74,0.00,,,0.00,WUHU216HW,2013-03-17 12:49:00,
2013-03-17 08:54:00,38.9,31.2,30.09,NNE,23,0.0,0.7,74,0.00,,,0.00,WUHU216HW,2013-03-17 12:54:00,
2013-03-17 08:59:00,39.2,31.6,30.09,NE,45,0.0,0.9,74,0.00,,,0.00,WUHU216HW,2013-03-17 12:59:00,
2013-03-17 09:04:00,39.4,31.8,30.09,East,90,0.0,0.9,74,0.00,,,0.00,WUHU216HW,2013-03-17 13:04:00,
2013-03-17 09:09:00,40.0,32.0,30.09,SSE,158,0.0,0.7,73,0.00,,,0.00,WUHU216HW,2013-03-17 13:09:00,
2013-03-17 09:14:00,40.1,32.1,30.09,ESE,113,0.0,0.7,73,0.00,,,0.00,WUHU216HW,2013-03-17 13:14:00,
2013-03-17 09:19:00,40.1,31.8,30.09,NNW,338,0.0,0.4,72,0.00,,,0.00,WUHU216HW,2013-03-17 13:19:00,
2013-03-17 09:24:00,40.3,32.0,30.09,NNW,338,0.0,0.2,72,0.00,,,0.00,WUHU216HW,2013-03-17 13:24:00,
2013-03-17 09:29:00,40.5,31.9,30.10,West,270,0.0,1.1,71,0.00,,,0.00,WUHU216HW,2013-03-17 13:29:00,
2013-03-17 09:34:00,40.7,32.1,30.10,NNE,23,0.9,1.1,71,0.00,,,0.00,WUHU216HW,2013-03-17 13:34:00,
2013-03-17 09:39:00,40.9,32.2,30.10,West,270,1.3,1.3,71,0.00,,,0.00,WUHU216HW,2013-03-17 13:39:00,
2013-03-17 09:44:00,40.9,32.2,30.10,WNW,293,0.0,1.3,71,0.00,,,0.00,WUHU216HW,2013-03-17 13:44:00,
2013-03-17 09:49:00,41.0,32.4,30.10,West,270,0.0,0.7,71,0.00,,,0.00,WUHU216HW,2013-03-17 13:49:00,
2013-03-17 09:54:00,41.0,32.4,30.10,West,270,0.0,1.1,71,0.00,,,0.00,WUHU216HW,2013-03-17 13:54:00,
2013-03-17 10:00:00,41.0,32.4,30.11,NE,45,1.3,1.3,71,0.00,,,0.00,WUHU216HW,2013-03-17 14:00:00,
2013-03-17 10:05:00,41.2,32.6,30.11,NE,45,0.0,1.3,71,0.00,,,0.00,WUHU216HW,2013-03-17 14:05:00,
2013-03-17 10:10:00,41.8,33.1,30.12,West,270,0.4,1.3,71,0.00,,,0.00,WUHU216HW,2013-03-17 14:10:00,
2013-03-17 10:15:00,42.1,33.5,30.12,West,270,1.1,1.1,71,0.00,,,0.00,WUHU216HW,2013-03-17 14:15:00,
2013-03-17 10:20:00,42.3,33.3,30.13,West,270,0.0,1.1,70,0.00,,,0.00,WUHU216HW,2013-03-17 14:20:00,
2013-03-17 10:25:00,42.5,33.1,30.13,WSW,248,1.3,1.8,69,0.00,,,0.00,WUHU216HW,2013-03-17 14:25:00,
2013-03-17 10:30:00,42.5,33.1,30.13,WSW,248,0.4,1.8,69,0.00,,,0.00,WUHU216HW,2013-03-17 14:30:00,
2013-03-17 10:35:00,42.5,33.1,30.13,SE,135,0.2,0.7,69,0.00,,,0.00,WUHU216HW,2013-03-17 14:35:00,
2013-03-17 10:40:00,42.8,33.5,30.13,South,180,0.0,0.7,69,0.00,,,0.00,WUHU216HW,2013-03-17 14:40:00,
2013-03-17 10:45:00,43.0,33.6,30.13,SW,225,0.0,0.7,69,0.00,,,0.00,WUHU216HW,2013-03-17 14:45:00,
2013-03-17 10:50:00,43.0,33.2,30.13,SSW,203,1.1,1.1,68,0.00,,,0.00,WUHU216HW,2013-03-17 14:50:00,
2013-03-17 10:55:00,43.0,32.9,30.13,SW,225,0.7,1.8,67,0.00,,,0.00,WUHU216HW,2013-03-17 14:55:00,
2013-03-17 11:00:00,43.0,32.4,30.13,WSW,248,0.2,1.8,66,0.00,,,0.00,WUHU216HW,2013-03-17 15:00:00,
2013-03-17 11:05:00,43.0,32.4,30.14,WSW,248,1.6,1.6,66,0.00,,,0.00,WUHU216HW,2013-03-17 15:05:00,
2013-03-17 11:10:00,42.8,32.2,30.13,WSW,248,0.9,2.5,66,0.00,,,0.00,WUHU216HW,2013-03-17 15:10:00,
2013-03-17 11:15:00,42.7,32.0,30.13,SW,225,0.4,2.5,66,0.00,,,0.00,WUHU216HW,2013-03-17 15:15:00,
2013-03-17 11:21:00,42.7,32.0,30.13,SSW,203,0.4,1.6,66,0.00,,,0.00,WUHU216HW,2013-03-17 15:21:00,
2013-03-17 11:26:00,42.7,32.0,30.13,WSW,248,0.2,1.6,66,0.00,,,0.00,WUHU216HW,2013-03-17 15:26:00,
2013-03-17 11:31:00,42.7,31.7,30.13,WSW,248,0.7,1.8,65,0.00,,,0.00,WUHU216HW,2013-03-17 15:31:00,
2013-03-17 11:37:00,42.8,32.2,30.13,ESE,113,0.2,1.8,66,0.00,,,0.00,WUHU216HW,2013-03-17 15:37:00,
2013-03-17 11:42:00,43.0,32.1,30.13,SSE,158,0.4,1.3,65,0.00,,,0.00,WUHU216HW,2013-03-17 15:42:00,
2013-03-17 11:47:00,43.0,32.4,30.13,ESE,113,0.4,1.3,66,0.00,,,0.00,WUHU216HW,2013-03-17 15:47:00,
2013-03-17 11:52:00,43.0,32.1,30.13,SSW,203,0.2,1.8,65,0.00,,,0.00,WUHU216HW,2013-03-17 15:52:00,
2013-03-17 11:57:00,43.0,32.1,30.13,SE,135,1.3,1.8,65,0.00,,,0.00,WUHU216HW,2013-03-17 15:57:00,
2013-03-17 12:02:00,42.8,31.9,30.13,NNE,23,0.9,1.8,65,0.00,,,0.00,WUHU216HW,2013-03-17 16:02:00,
2013-03-17 12:07:00,43.0,31.7,30.13,ESE,113,1.1,1.8,64,0.00,,,0.00,WUHU216HW,2013-03-17 16:07:00,
2013-03-17 12:12:00,43.0,31.7,30.15,SW,225,1.3,1.3,64,0.00,,,0.00,WUHU216HW,2013-03-17 16:12:00,
2013-03-17 12:17:00,43.0,31.7,30.15,South,180,1.1,1.3,64,0.00,,,0.00,WUHU216HW,2013-03-17 16:17:00,
2013-03-17 12:22:00,43.0,31.7,30.15,WSW,248,1.3,1.3,64,0.00,,,0.00,WUHU216HW,2013-03-17 16:22:00,
2013-03-17 12:27:00,42.8,31.5,30.16,SW,225,1.8,1.8,64,0.00,,,0.00,WUHU216HW,2013-03-17 16:27:00,
2013-03-17 12:32:00,42.8,31.5,30.16,South,180,0.7,1.8,64,0.00,,,0.00,WUHU216HW,2013-03-17 16:32:00,
2013-03-17 12:38:00,42.8,31.5,30.17,ESE,113,0.4,1.6,64,0.00,,,0.00,WUHU216HW,2013-03-17 16:38:00,
2013-03-17 12:43:00,42.8,31.5,30.16,SE,135,0.4,0.9,64,0.00,,,0.00,WUHU216HW,2013-03-17 16:43:00,
2013-03-17 12:48:00,42.8,31.5,30.15,SSE,158,0.0,0.7,64,0.00,,,0.00,WUHU216HW,2013-03-17 16:48:00,
2013-03-17 12:53:00,42.8,31.5,30.15,SSW,203,0.7,1.6,64,0.00,,,0.00,WUHU216HW,2013-03-17 16:53:00,
2013-03-17 12:58:00,42.8,31.5,30.16,SE,135,0.4,1.6,64,0.00,,,0.00,WUHU216HW,2013-03-17 16:58:00,
2013-03-17 13:03:00,42.8,31.5,30.15,WSW,248,1.8,1.8,64,0.00,,,0.00,WUHU216HW,2013-03-17 17:03:00,
2013-03-17 13:08:00,42.8,31.5,30.15,SW,225,0.4,1.8,64,0.00,,,0.00,WUHU216HW,2013-03-17 17:08:00,
2013-03-17 13:13:00,42.8,31.9,30.15,SE,135,0.0,1.3,65,0.00,,,0.00,WUHU216HW,2013-03-17 17:13:00,
2013-03-17 13:18:00,42.5,32.0,30.14,WSW,248,0.4,1.3,66,0.00,,,0.00,WUHU216HW,2013-03-17 17:18:00,
2013-03-17 13:23:00,42.3,31.8,30.15,WSW,248,0.9,1.6,66,0.00,,,0.00,WUHU216HW,2013-03-17 17:23:00,
2013-03-17 13:28:00,42.1,31.6,30.14,South,180,2.2,2.2,66,0.00,,,0.00,WUHU216HW,2013-03-17 17:28:00,
2013-03-17 13:33:00,42.1,31.6,30.14,SSW,203,0.0,2.2,66,0.00,,,0.00,WUHU216HW,2013-03-17 17:33:00,
2013-03-17 13:39:00,42.1,32.0,30.14,SW,225,0.9,2.0,67,0.00,,,0.00,WUHU216HW,2013-03-17 17:39:00,
2013-03-17 13:44:00,42.1,32.0,30.15,SW,225,0.0,2.0,67,0.00,,,0.00,WUHU216HW,2013-03-17 17:44:00,
2013-03-17 13:49:00,42.1,31.6,30.14,SSW,203,0.4,2.5,66,0.00,,,0.00,WUHU216HW,2013-03-17 17:49:00,
2013-03-17 13:54:00,42.1,31.6,30.14,ESE,113,0.4,2.5,66,0.00,,,0.00,WUHU216HW,2013-03-17 17:54:00,
2013-03-17 13:59:00,42.5,32.0,30.13,SSW,203,0.4,1.8,66,0.00,,,0.00,WUHU216HW,2013-03-17 17:59:00,
2013-03-17 14:04:00,42.7,32.0,30.13,NW,315,0.9,0.9,66,0.00,,,0.00,WUHU216HW,2013-03-17 18:04:00,
2013-03-17 14:09:00,42.3,31.3,30.13,ESE,113,0.4,1.3,65,0.00,,,0.00,WUHU216HW,2013-03-17 18:09:00,
2013-03-17 14:14:00,42.3,31.3,30.13,SSW,203,0.4,1.3,65,0.00,,,0.00,WUHU216HW,2013-03-17 18:14:00,
2013-03-17 14:19:00,42.1,31.1,30.13,SE,135,0.9,0.9,65,0.00,,,0.00,WUHU216HW,2013-03-17 18:19:00,
2013-03-17 14:24:00,42.1,31.1,30.13,ESE,113,1.1,2.5,65,0.00,,,0.00,WUHU216HW,2013-03-17 18:24:00,
2013-03-17 14:29:00,41.8,30.9,30.13,SW,225,0.7,2.5,65,0.00,,,0.00,WUHU216HW,2013-03-17 18:29:00,
2013-03-17 14:34:00,41.8,30.9,30.13,South,180,0.9,2.0,65,0.00,,,0.00,WUHU216HW,2013-03-17 18:34:00,
2013-03-17 14:39:00,41.6,30.7,30.13,WSW,248,0.0,1.3,65,0.00,,,0.00,WUHU216HW,2013-03-17 18:39:00,
2013-03-17 14:45:00,41.8,30.9,30.13,WNW,293,1.1,2.5,65,0.00,,,0.00,WUHU216HW,2013-03-17 18:45:00,
2013-03-17 14:50:00,41.6,30.7,30.13,SE,135,1.1,2.5,65,0.00,,,0.00,WUHU216HW,2013-03-17 18:50:00,
2013-03-17 14:55:00,41.6,30.7,30.14,SW,225,0.0,2.5,65,0.00,,,0.00,WUHU216HW,2013-03-17 18:55:00,
2013-03-17 15:00:00,41.6,30.7,30.14,WSW,248,1.1,2.5,65,0.00,,,0.00,WUHU216HW,2013-03-17 19:00:00,
2013-03-17 15:05:00,41.4,30.9,30.14,SE,135,2.0,2.0,66,0.00,,,0.00,WUHU216HW,2013-03-17 19:05:00,
2013-03-17 15:10:00,41.6,31.1,30.14,South,180,0.2,2.0,66,0.00,,,0.00,WUHU216HW,2013-03-17 19:10:00,
2013-03-17 15:15:00,41.6,31.1,30.15,South,180,0.0,1.6,66,0.00,,,0.00,WUHU216HW,2013-03-17 19:15:00,
2013-03-17 15:20:00,41.8,30.9,30.15,ESE,113,0.9,1.6,65,0.00,,,0.00,WUHU216HW,2013-03-17 19:20:00,
2013-03-17 15:25:00,41.6,30.7,30.15,WSW,248,1.6,1.6,65,0.00,,,0.00,WUHU216HW,2013-03-17 19:25:00,
2013-03-17 15:30:00,41.4,30.5,30.15,NE,45,0.4,1.6,65,0.00,,,0.00,WUHU216HW,2013-03-17 19:30:00,
2013-03-17 15:35:00,41.6,30.7,30.15,SSE,158,0.0,2.0,65,0.00,,,0.00,WUHU216HW,2013-03-17 19:35:00,
2013-03-17 15:40:00,41.4,30.5,30.15,ESE,113,1.1,2.0,65,0.00,,,0.00,WUHU216HW,2013-03-17 19:40:00,
2013-03-17 15:46:00,41.6,30.7,30.15,SW,225,1.3,1.8,65,0.00,,,0.00,WUHU216HW,2013-03-17 19:46:00,
2013-03-17 15:51:00,41.8,30.9,30.15,WSW,248,0.9,1.6,65,0.00,,,0.00,WUHU216HW,2013-03-17 19:51:00,
2013-03-17 15:56:00,41.9,30.6,30.15,WSW,248,1.6,1.6,64,0.00,,,0.00,WUHU216HW,2013-03-17 19:56:00,
2013-03-17 16:01:00,42.1,30.8,30.15,ESE,113,1.8,1.8,64,0.00,,,0.00,WUHU216HW,2013-03-17 20:01:00,
2013-03-17 16:06:00,42.1,30.8,30.15,WSW,248,1.1,1.8,64,0.00,,,0.00,WUHU216HW,2013-03-17 20:06:00,
2013-03-17 16:11:00,42.3,31.0,30.15,SSW,203,0.0,1.1,64,0.00,,,0.00,WUHU216HW,2013-03-17 20:11:00,
2013-03-17 16:16:00,42.5,31.2,30.15,SW,225,1.3,1.3,64,0.00,,,0.00,WUHU216HW,2013-03-17 20:16:00,
2013-03-17 16:22:00,42.5,31.2,30.15,SW,225,0.0,1.3,64,0.00,,,0.00,WUHU216HW,2013-03-17 20:22:00,
2013-03-17 16:27:00,42.3,30.6,30.15,SSE,158,0.7,1.3,63,0.00,,,0.00,WUHU216HW,2013-03-17 20:27:00,
2013-03-17 16:32:00,42.1,30.4,30.15,SSE,158,0.2,1.3,63,0.00,,,0.00,WUHU216HW,2013-03-17 20:32:00,
2013-03-17 16:37:00,42.1,30.4,30.15,South,180,0.4,1.8,63,0.00,,,0.00,WUHU216HW,2013-03-17 20:37:00,
2013-03-17 16:42:00,42.1,30.4,30.15,WSW,248,0.4,1.8,63,0.00,,,0.00,WUHU216HW,2013-03-17 20:42:00,
2013-03-17 16:47:00,41.9,30.3,30.16,ESE,113,1.1,1.3,63,0.00,,,0.00,WUHU216HW,2013-03-17 20:47:00,
2013-03-17 16:52:00,41.9,30.3,30.16,East,90,0.0,1.1,63,0.00,,,0.00,WUHU216HW,2013-03-17 20:52:00,
2013-03-17 16:57:00,41.9,30.3,30.16,SSE,158,0.7,1.1,63,0.00,,,0.00,WUHU216HW,2013-03-17 20:57:00,
2013-03-17 17:02:00,41.8,30.1,30.15,ESE,113,0.0,1.1,63,0.00,,,0.00,WUHU216HW,2013-03-17 21:02:00,
2013-03-17 17:07:00,41.8,30.4,30.15,ESE,113,0.0,1.1,64,0.00,,,0.00,WUHU216HW,2013-03-17 21:07:00,
2013-03-17 17:12:00,41.8,30.4,30.16,East,90,0.0,0.9,64,0.00,,,0.00,WUHU216HW,2013-03-17 21:12:00,
2013-03-17 17:17:00,41.8,30.4,30.16,SSE,158,0.0,1.8,64,0.00,,,0.00,WUHU216HW,2013-03-17 21:17:00,
2013-03-17 17:22:00,41.8,30.4,30.16,SSW,203,0.0,1.8,64,0.00,,,0.00,WUHU216HW,2013-03-17 21:22:00,
2013-03-17 17:27:00,41.9,30.6,30.16,SE,135,0.0,0.7,64,0.00,,,0.00,WUHU216HW,2013-03-17 21:27:00,
2013-03-17 17:32:00,42.1,30.8,30.16,WSW,248,0.0,0.2,64,0.00,,,0.00,WUHU216HW,2013-03-17 21:32:00,
2013-03-17 17:37:00,41.9,30.6,30.16,SSE,158,0.0,0.4,64,0.00,,,0.00,WUHU216HW,2013-03-17 21:37:00,
2013-03-17 17:43:00,41.8,30.1,30.16,WSW,248,0.2,1.3,63,0.00,,,0.00,WUHU216HW,2013-03-17 21:43:00,
2013-03-17 17:48:00,41.6,29.9,30.17,WSW,248,0.0,1.3,63,0.00,,,0.00,WUHU216HW,2013-03-17 21:48:00,
2013-03-17 17:53:00,41.6,29.9,30.17,WSW,248,0.0,0.9,63,0.00,,,0.00,WUHU216HW,2013-03-17 21:53:00,
2013-03-17 17:58:00,41.6,29.9,30.16,SSW,203,0.2,0.9,63,0.00,,,0.00,WUHU216HW,2013-03-17 21:58:00,
2013-03-17 18:03:00,41.6,29.9,30.17,WNW,293,0.2,0.9,63,0.00,,,0.00,WUHU216HW,2013-03-17 22:03:00,
2013-03-17 18:08:00,41.4,29.7,30.17,SE,135,0.0,1.1,63,0.00,,,0.00,WUHU216HW,2013-03-17 22:08:00,
2013-03-17 18:13:00,41.4,29.7,30.17,East,90,0.0,1.1,63,0.00,,,0.00,WUHU216HW,2013-03-17 22:13:00,
2013-03-17 18:18:00,41.4,29.7,30.17,SW,225,0.0,0.2,63,0.00,,,0.00,WUHU216HW,2013-03-17 22:18:00,
2013-03-17 18:23:00,41.4,29.7,30.17,SW,225,0.2,0.4,63,0.00,,,0.00,WUHU216HW,2013-03-17 22:23:00,
2013-03-17 18:28:00,41.4,29.7,30.17,SW,225,0.0,0.4,63,0.00,,,0.00,WUHU216HW,2013-03-17 22:28:00,
2013-03-17 18:33:00,41.4,29.7,30.18,SSW,203,0.0,0.9,63,0.00,,,0.00,WUHU216HW,2013-03-17 22:33:00,
2013-03-17 18:38:00,41.4,29.7,30.17,ESE,113,2.0,2.0,63,0.00,,,0.00,WUHU216HW,2013-03-17 22:38:00,
2013-03-17 18:43:00,41.2,29.5,30.18,ESE,113,0.0,2.0,63,0.00,,,0.00,WUHU216HW,2013-03-17 22:43:00,
2013-03-17 18:48:00,41.2,29.5,30.18,South,180,0.2,0.9,63,0.00,,,0.00,WUHU216HW,2013-03-17 22:48:00,
2013-03-17 18:53:00,41.2,29.2,30.18,WSW,248,1.1,1.1,62,0.00,,,0.00,WUHU216HW,2013-03-17 22:53:00,
2013-03-17 18:58:00,41.0,29.0,30.18,SSW,203,1.3,1.3,62,0.00,,,0.00,WUHU216HW,2013-03-17 22:58:00,
2013-03-17 19:03:00,41.0,29.0,30.19,SW,225,0.0,1.3,62,0.00,,,0.00,WUHU216HW,2013-03-17 23:03:00,
2013-03-17 19:08:00,41.0,29.0,30.19,WSW,248,0.0,0.9,62,0.00,,,0.00,WUHU216HW,2013-03-17 23:08:00,
2013-03-17 19:14:00,41.0,29.0,30.19,SSW,203,0.0,0.4,62,0.00,,,0.00,WUHU216HW,2013-03-17 23:14:00,
2013-03-17 19:19:00,40.9,28.8,30.20,West,270,0.0,0.0,62,0.00,,,0.00,WUHU216HW,2013-03-17 23:19:00,
2013-03-17 19:24:00,40.7,28.3,30.19,WNW,293,0.2,0.2,61,0.00,,,0.00,WUHU216HW,2013-03-17 23:24:00,
2013-03-17 19:29:00,40.7,28.3,30.19,NW,315,0.0,0.2,61,0.00,,,0.00,WUHU216HW,2013-03-17 23:29:00,
2013-03-17 19:34:00,40.7,28.6,30.19,NW,315,0.0,0.0,62,0.00,,,0.00,WUHU216HW,2013-03-17 23:34:00,
2013-03-17 19:39:00,40.7,28.6,30.20,SSW,203,0.4,0.4,62,0.00,,,0.00,WUHU216HW,2013-03-17 23:39:00,
2013-03-17 19:44:00,40.7,28.6,30.20,ENE,68,0.0,0.4,62,0.00,,,0.00,WUHU216HW,2013-03-17 23:44:00,
2013-03-17 19:49:00,40.7,28.3,30.20,ESE,113,0.0,0.4,61,0.00,,,0.00,WUHU216HW,2013-03-17 23:49:00,
2013-03-17 19:54:00,40.5,28.1,30.21,West,270,0.0,0.4,61,0.00,,,0.00,WUHU216HW,2013-03-17 23:54:00,
2013-03-17 19:59:00,40.5,28.1,30.21,WSW,248,0.0,0.0,61,0.00,,,0.00,WUHU216HW,2013-03-17 23:59:00,
2013-03-17 20:04:00,40.5,28.1,30.20,SW,225,0.0,0.4,61,0.00,,,0.00,WUHU216HW,2013-03-18 00:04:00,
2013-03-17 20:09:00,40.5,28.1,30.20,SSE,158,0.0,0.4,61,0.00,,,0.00,WUHU216HW,2013-03-18 00:09:00,
2013-03-17 20:14:00,40.5,28.1,30.21,SSE,158,0.0,0.0,61,0.00,,,0.00,WUHU216HW,2013-03-18 00:14:00,
2013-03-17 20:19:00,40.3,27.9,30.21,SSE,158,0.0,0.0,61,0.00,,,0.00,WUHU216HW,2013-03-18 00:19:00,
2013-03-17 20:24:00,40.3,27.9,30.22,SSE,158,0.0,0.0,61,0.00,,,0.00,WUHU216HW,2013-03-18 00:24:00,
2013-03-17 20:29:00,40.3,27.9,30.21,SSE,158,0.0,0.0,61,0.00,,,0.00,WUHU216HW,2013-03-18 00:29:00,
2013-03-17 20:34:00,40.3,27.9,30.22,SW,225,0.0,0.0,61,0.00,,,0.00,WUHU216HW,2013-03-18 00:34:00,
2013-03-17 20:40:00,40.3,27.9,30.22,WSW,248,0.4,0.9,61,0.00,,,0.00,WUHU216HW,2013-03-18 00:40:00,
2013-03-17 20:45:00,40.3,27.9,30.22,NE,45,0.0,0.9,61,0.00,,,0.00,WUHU216HW,2013-03-18 00:45:00,
2013-03-17 20:50:00,40.3,28.7,30.23,NNE,23,0.4,1.6,63,0.00,,,0.00,WUHU216HW,2013-03-18 00:50:00,
2013-03-17 20:55:00,40.1,29.3,30.23,East,90,0.4,1.6,65,0.00,,,0.00,WUHU216HW,2013-03-18 00:55:00,
2013-03-17 21:00:00,40.0,29.8,30.22,SSW,203,0.2,0.7,67,0.00,,,0.00,WUHU216HW,2013-03-18 01:00:00,
2013-03-17 21:05:00,39.6,29.9,30.22,North,0,0.2,1.1,68,0.00,,,0.00,WUHU216HW,2013-03-18 01:05:00,
2013-03-17 21:10:00,39.6,30.6,30.23,NW,315,0.0,1.1,70,0.00,,,0.00,WUHU216HW,2013-03-18 01:10:00,
2013-03-17 21:15:00,39.4,30.4,30.23,NE,45,0.0,0.4,70,0.00,,,0.00,WUHU216HW,2013-03-18 01:15:00,
2013-03-17 21:20:00,39.4,31.2,30.23,East,90,0.2,1.1,72,0.00,,,0.00,WUHU216HW,2013-03-18 01:20:00,
2013-03-17 21:25:00,39.2,30.6,30.23,SSW,203,0.0,1.1,71,0.00,,,0.00,WUHU216HW,2013-03-18 01:25:00,
2013-03-17 21:30:00,39.1,30.8,30.22,SW,225,0.0,0.9,72,0.00,,,0.00,WUHU216HW,2013-03-18 01:30:00,
2013-03-17 21:35:00,39.1,31.4,30.22,WNW,293,0.2,0.9,74,0.00,,,0.00,WUHU216HW,2013-03-18 01:35:00,
2013-03-17 21:40:00,39.1,30.8,30.23,South,180,0.0,0.4,72,0.00,,,0.00,WUHU216HW,2013-03-18 01:40:00,
2013-03-17 21:45:00,38.9,31.0,30.23,WSW,248,0.0,0.2,73,0.00,,,0.00,WUHU216HW,2013-03-18 01:45:00,
2013-03-17 21:50:00,38.9,30.6,30.23,NE,45,0.0,0.4,72,0.00,,,0.00,WUHU216HW,2013-03-18 01:50:00,
2013-03-17 21:55:00,38.9,31.0,30.23,NNE,23,0.2,0.7,73,0.00,,,0.00,WUHU216HW,2013-03-18 01:55:00,
2013-03-17 22:00:00,38.7,31.2,30.23,North,0,0.0,0.7,74,0.00,,,0.00,WUHU216HW,2013-03-18 02:00:00,
2013-03-17 22:05:00,38.7,30.8,30.24,North,0,0.0,0.2,73,0.00,,,0.00,WUHU216HW,2013-03-18 02:05:00,
2013-03-17 22:10:00,38.7,30.8,30.24,North,0,0.0,0.0,73,0.00,,,0.00,WUHU216HW,2013-03-18 02:10:00,
2013-03-17 22:15:00,38.7,30.8,30.24,NE,45,0.4,1.1,73,0.00,,,0.00,WUHU216HW,2013-03-18 02:15:00,
2013-03-17 22:21:00,38.5,30.6,30.24,NNW,338,0.0,1.1,73,0.00,,,0.00,WUHU216HW,2013-03-18 02:21:00,
2013-03-17 22:26:00,38.5,30.6,30.24,NNW,338,0.0,0.4,73,0.00,,,0.00,WUHU216HW,2013-03-18 02:26:00,
2013-03-17 22:31:00,38.5,30.6,30.25,NNW,338,0.0,0.0,73,0.00,,,0.00,WUHU216HW,2013-03-18 02:31:00,
2013-03-17 22:36:00,38.7,30.8,30.25,NNW,338,0.0,0.0,73,0.00,,,0.00,WUHU216HW,2013-03-18 02:36:00,
2013-03-17 22:42:00,38.7,30.8,30.24,NNW,338,0.0,0.0,73,0.00,,,0.00,WUHU216HW,2013-03-18 02:42:00,
2013-03-17 22:47:00,38.7,30.8,30.25,WNW,293,0.2,0.4,73,0.00,,,0.00,WUHU216HW,2013-03-18 02:47:00,
2013-03-17 22:52:00,38.7,30.4,30.25,WNW,293,0.0,0.4,72,0.00,,,0.00,WUHU216HW,2013-03-18 02:52:00,
2013-03-17 22:57:00,38.7,30.4,30.25,West,270,1.1,1.1,72,0.00,,,0.00,WUHU216HW,2013-03-18 02:57:00,
2013-03-17 23:02:00,38.7,30.1,30.25,NNE,23,0.0,1.1,71,0.00,,,0.00,WUHU216HW,2013-03-18 03:02:00,
2013-03-17 23:07:00,38.7,30.1,30.25,NNW,338,0.0,1.1,71,0.00,,,0.00,WUHU216HW,2013-03-18 03:07:00,
2013-03-17 23:12:00,38.7,30.1,30.25,West,270,0.0,0.9,71,0.00,,,0.00,WUHU216HW,2013-03-18 03:12:00,
2013-03-17 23:17:00,38.7,30.1,30.25,West,270,0.4,0.9,71,0.00,,,0.00,WUHU216HW,2013-03-18 03:17:00,
2013-03-17 23:22:00,38.9,30.2,30.25,SSE,158,0.2,1.8,71,0.00,,,0.00,WUHU216HW,2013-03-18 03:22:00,
2013-03-17 23:27:00,38.9,29.9,30.25,WSW,248,1.8,1.8,70,0.00,,,0.00,WUHU216HW,2013-03-18 03:27:00,
2013-03-17 23:32:00,38.9,29.5,30.25,West,270,0.4,2.0,69,0.00,,,0.00,WUHU216HW,2013-03-18 03:32:00,
2013-03-17 23:37:00,38.9,29.5,30.25,SW,225,0.0,2.0,69,0.00,,,0.00,WUHU216HW,2013-03-18 03:37:00,
2013-03-17 23:42:00,39.1,29.4,30.25,WNW,293,2.2,2.2,68,0.00,,,0.00,WUHU216HW,2013-03-18 03:42:00,
2013-03-17 23:48:00,39.1,29.4,30.25,WSW,248,0.0,2.9,68,0.00,,,0.00,WUHU216HW,2013-03-18 03:48:00,
2013-03-17 23:53:00,39.1,29.0,30.25,West,270,0.4,3.4,67,0.00,,,0.00,WUHU216HW,2013-03-18 03:53:00,
2013-03-17 23:58:00,39.1,29.0,30.26,SSW,203,0.4,3.4,67,0.00,,,0.00,WUHU216HW,2013-03-18 03:58:00,